createdAt,value
2023-02-08T00:00:59.778Z,-1.25
2023-02-08T00:03:30.211Z,-1.27
2023-02-08T00:06:00.638Z,-1.27
2023-02-08T00:08:31.234Z,-1.30
2023-02-08T00:11:01.426Z,-1.28
2023-02-08T00:13:34.320Z,-1.29
2023-02-08T00:16:04.626Z,-1.28
2023-02-08T00:18:34.729Z,-1.27
2023-02-08T00:21:09.625Z,-1.26
2023-02-08T00:23:39.923Z,-1.27
2023-02-08T00:26:10.286Z,-1.23
2023-02-08T00:28:43.908Z,-1.24
2023-02-08T00:31:14.104Z,-1.24
2023-02-08T00:33:44.504Z,-1.24
2023-02-08T00:36:15.435Z,-1.22
2023-02-08T00:38:45.665Z,-1.20
2023-02-08T00:41:15.848Z,-1.20
2023-02-08T00:43:48.620Z,-1.20
2023-02-08T00:46:19.089Z,-1.20
2023-02-08T00:48:49.696Z,-1.21
2023-02-08T00:51:19.844Z,-1.24
2023-02-08T00:53:53.033Z,-1.25
2023-02-08T00:56:23.118Z,-1.26
2023-02-08T00:58:55.816Z,-1.28
2023-02-08T01:01:25.942Z,-1.28
2023-02-08T01:03:56.145Z,-1.30
2023-02-08T01:06:26.295Z,-1.31
2023-02-08T01:08:56.680Z,-1.30
2023-02-08T01:11:27.824Z,-1.31
2023-02-08T01:14:01.030Z,-1.34
2023-02-08T01:16:32.188Z,-1.32
2023-02-08T01:19:04.648Z,-1.35
2023-02-08T01:21:39.473Z,-1.38
2023-02-08T01:24:10.452Z,-1.42
2023-02-08T01:26:41.177Z,-1.43
2023-02-08T01:29:14.326Z,-1.50
2023-02-08T01:31:45.207Z,-1.54
2023-02-08T01:34:15.450Z,-1.59
2023-02-08T01:36:46.763Z,-1.63
2023-02-08T01:39:16.913Z,-1.67
2023-02-08T01:41:48.037Z,-1.70
2023-02-08T01:44:33.215Z,-1.71
2023-02-08T01:47:06.101Z,-1.87
2023-02-08T01:49:37.813Z,-1.77
2023-02-08T01:52:11.289Z,-1.78
2023-02-08T01:54:45.762Z,-1.80
2023-02-08T01:57:16.417Z,-1.80
2023-02-08T01:59:49.996Z,-2.14
2023-02-08T02:02:24.017Z,-1.82
2023-02-08T02:04:55.122Z,-1.84
2023-02-08T02:07:29.027Z,-1.85
2023-02-08T02:10:02.144Z,-1.84
2023-02-08T02:12:32.848Z,-1.86
2023-02-08T02:15:03.738Z,-1.85
2023-02-08T02:17:36.684Z,-1.86
2023-02-08T02:20:10.708Z,-1.85
2023-02-08T02:23:04.881Z,-1.84
2023-02-08T02:25:49.653Z,-1.83
2023-02-08T02:28:37.920Z,-1.82
2023-02-08T02:31:19.818Z,-1.81
2023-02-08T02:34:00.590Z,-1.82
2023-02-08T02:36:35.966Z,-1.80
2023-02-08T02:39:15.023Z,-1.79
2023-02-08T02:42:06.162Z,-1.79
2023-02-08T02:44:39.718Z,-1.80
2023-02-08T02:47:14.037Z,-1.79
2023-02-08T02:49:50.775Z,-1.83
2023-02-08T02:52:23.492Z,-1.85
2023-02-08T02:54:54.780Z,-1.87
2023-02-08T02:57:27.732Z,-1.88
2023-02-08T02:59:58.053Z,-1.89
2023-02-08T03:02:28.862Z,-1.92
2023-02-08T03:05:01.600Z,-1.91
2023-02-08T03:07:50.963Z,-1.91
2023-02-08T03:10:30.803Z,-1.90
2023-02-08T03:13:03.829Z,-1.91
2023-02-08T03:15:42.408Z,-1.91
2023-02-08T03:18:18.057Z,-1.90
2023-02-08T03:20:53.975Z,-1.91
2023-02-08T03:23:27.303Z,-1.90
2023-02-08T03:26:01.952Z,-1.93
2023-02-08T03:28:38.010Z,-1.92
2023-02-08T03:31:15.080Z,-1.93
2023-02-08T03:33:51.798Z,-1.93
2023-02-08T03:36:29.405Z,-1.93
2023-02-08T03:39:00.857Z,-1.92
2023-02-08T03:41:33.289Z,-1.94
2023-02-08T03:44:06.255Z,-1.96
2023-02-08T03:46:38.526Z,-1.93
2023-02-08T03:49:11.170Z,-1.94
2023-02-08T03:51:45.008Z,-1.96
2023-02-08T03:54:17.007Z,-1.97
2023-02-08T03:56:49.577Z,-1.97
2023-02-08T03:59:22.281Z,-1.99
2023-02-08T04:01:54.914Z,-1.97
2023-02-08T04:04:25.230Z,-1.99
2023-02-08T04:06:57.943Z,-1.97
2023-02-08T04:09:28.154Z,-1.99
2023-02-08T04:11:58.809Z,-1.98
2023-02-08T04:14:29.198Z,-2.00
2023-02-08T04:16:59.441Z,-2.01
2023-02-08T04:19:29.525Z,-2.02
2023-02-08T04:22:02.169Z,-2.01
2023-02-08T04:24:32.237Z,-2.04
2023-02-08T04:27:03.913Z,-2.04
2023-02-08T04:29:35.844Z,-2.03
2023-02-08T04:32:11.606Z,-2.03
2023-02-08T04:34:41.807Z,-2.06
2023-02-08T04:37:14.790Z,-2.07
2023-02-08T04:39:44.994Z,-2.12
2023-02-08T04:42:17.398Z,-2.14
2023-02-08T04:44:47.728Z,-2.15
2023-02-08T04:47:17.993Z,-2.17
2023-02-08T04:49:48.188Z,-2.19
2023-02-08T04:52:21.056Z,-2.21
2023-02-08T04:54:51.094Z,-2.21
2023-02-08T04:57:21.253Z,-2.23
2023-02-08T04:59:51.372Z,-2.25
2023-02-08T05:02:21.517Z,-2.26
2023-02-08T05:04:51.670Z,-2.30
2023-02-08T05:07:24.667Z,-2.33
2023-02-08T05:09:54.733Z,-2.37
2023-02-08T05:12:25.107Z,-2.38
2023-02-08T05:14:55.223Z,-2.39
2023-02-08T05:17:25.474Z,-2.40
2023-02-08T05:19:55.752Z,-2.38
2023-02-08T05:22:28.512Z,-2.33
2023-02-08T05:24:58.605Z,-2.29
2023-02-08T05:27:28.730Z,-2.28
2023-02-08T05:29:59.246Z,-2.30
2023-02-08T05:32:29.847Z,-2.30
2023-02-08T05:35:00.329Z,-2.31
2023-02-08T05:37:33.048Z,-2.32
2023-02-08T05:40:03.174Z,-2.32
2023-02-08T05:42:33.540Z,-2.34
2023-02-08T05:45:03.828Z,-2.35
2023-02-08T05:47:33.917Z,-2.35
2023-02-08T05:50:04.156Z,-2.37
2023-02-08T05:52:37.236Z,-2.36
2023-02-08T05:55:08.064Z,-2.37
2023-02-08T05:57:38.293Z,-2.42
2023-02-08T06:00:09.131Z,-2.44
2023-02-08T06:02:46.348Z,-2.46
2023-02-08T06:05:16.514Z,-2.50
2023-02-08T06:07:49.495Z,-2.51
2023-02-08T06:10:19.894Z,-2.56
2023-02-08T06:12:50.201Z,-2.56
2023-02-08T06:15:20.799Z,-2.60
2023-02-08T06:17:50.966Z,-2.63
2023-02-08T06:20:21.343Z,-2.63
2023-02-08T06:22:54.142Z,-2.66
2023-02-08T06:25:24.317Z,-2.66
2023-02-08T06:27:56.477Z,-2.64
2023-02-08T06:30:27.937Z,-2.64
2023-02-08T06:32:58.065Z,-2.62
2023-02-08T06:35:28.177Z,-2.63
2023-02-08T06:38:01.567Z,-2.61
2023-02-08T06:40:31.856Z,-2.61
2023-02-08T06:43:02.045Z,-2.60
2023-02-08T06:45:32.360Z,-2.62
2023-02-08T06:48:02.463Z,-2.63
2023-02-08T06:50:32.575Z,-2.64
2023-02-08T06:53:05.328Z,-2.64
2023-02-08T06:55:35.627Z,-2.66
2023-02-08T06:58:05.731Z,-2.78
2023-02-08T07:00:35.816Z,-2.65
2023-02-08T07:03:05.924Z,-2.65
2023-02-08T07:05:37.145Z,-2.64
2023-02-08T07:08:10.196Z,-2.63
2023-02-08T07:10:41.497Z,-2.58
2023-02-08T07:13:11.697Z,-2.57
2023-02-08T07:15:41.669Z,-2.55
2023-02-08T07:18:11.845Z,-2.54
2023-02-08T07:20:42.093Z,-2.53
2023-02-08T07:23:14.699Z,-2.54
2023-02-08T07:25:46.107Z,-2.51
2023-02-08T07:28:16.385Z,-2.50
2023-02-08T07:30:46.529Z,-2.48
2023-02-08T07:33:16.551Z,-2.45
2023-02-08T07:35:47.265Z,-2.39
2023-02-08T07:38:20.952Z,-2.34
2023-02-08T07:40:51.465Z,-2.32
2023-02-08T07:43:21.891Z,-2.29
2023-02-08T07:46:00.200Z,-2.56
2023-02-08T07:48:30.345Z,-2.26
2023-02-08T07:51:09.608Z,-2.21
2023-02-08T07:53:42.509Z,-2.17
2023-02-08T07:56:13.177Z,-2.16
2023-02-08T07:58:43.330Z,-2.13
2023-02-08T08:01:22.000Z,-2.10
2023-02-08T08:03:53.394Z,-2.07
2023-02-08T08:06:24.546Z,-2.03
2023-02-08T08:08:57.266Z,-1.99
2023-02-08T08:11:27.284Z,-1.92
2023-02-08T08:13:57.458Z,-1.88
2023-02-08T08:16:27.601Z,-1.81
2023-02-08T08:18:57.850Z,-1.74
2023-02-08T08:21:27.906Z,-1.68
2023-02-08T08:24:00.688Z,-1.62
2023-02-08T08:26:30.766Z,-1.56
2023-02-08T08:29:02.990Z,-1.49
2023-02-08T08:31:33.432Z,-1.40
2023-02-08T08:34:03.686Z,-1.34
2023-02-08T08:36:34.009Z,-1.28
2023-02-08T08:39:06.651Z,-1.22
2023-02-08T08:41:37.128Z,-1.18
2023-02-08T08:44:07.343Z,-1.13
2023-02-08T08:46:37.481Z,-1.04
2023-02-08T08:49:07.540Z,-0.95
2023-02-08T08:51:37.962Z,-0.88
2023-02-08T08:54:11.332Z,-0.83
2023-02-08T08:56:41.633Z,-0.78
2023-02-08T08:59:11.782Z,-0.69
2023-02-08T09:01:42.884Z,-0.60
2023-02-08T09:04:13.265Z,-0.53
2023-02-08T09:06:43.401Z,-0.49
2023-02-08T09:09:16.067Z,-0.36
2023-02-08T09:11:46.204Z,-0.23
2023-02-08T09:14:16.432Z,-0.14
2023-02-08T09:16:48.176Z,-0.04
2023-02-08T09:19:18.728Z,0.04
2023-02-08T09:21:49.001Z,0.10
2023-02-08T09:24:22.160Z,0.18
2023-02-08T09:26:52.404Z,0.28
2023-02-08T09:29:22.504Z,0.07
2023-02-08T09:31:52.877Z,0.42
2023-02-08T09:34:22.976Z,0.50
2023-02-08T09:36:53.385Z,0.60
2023-02-08T09:39:27.007Z,0.66
2023-02-08T09:42:16.995Z,0.72
2023-02-08T09:44:54.485Z,0.81
2023-02-08T09:47:27.302Z,0.87
2023-02-08T09:49:59.995Z,0.91
2023-02-08T09:52:32.418Z,1.00
2023-02-08T09:55:07.206Z,1.11
2023-02-08T09:57:37.784Z,1.17
2023-02-08T10:00:13.337Z,1.23
2023-02-08T10:02:44.148Z,1.29
2023-02-08T10:05:15.905Z,1.35
2023-02-08T10:07:46.009Z,1.42
2023-02-08T10:10:20.706Z,1.50
2023-02-08T10:12:55.818Z,1.58
2023-02-08T10:15:32.382Z,1.65
2023-02-08T10:18:19.237Z,1.69
2023-02-08T10:20:55.621Z,1.78
2023-02-08T10:23:35.758Z,1.86
2023-02-08T10:26:13.505Z,1.94
2023-02-08T10:29:05.120Z,2.05
2023-02-08T10:31:43.119Z,2.15
2023-02-08T10:34:16.559Z,2.24
2023-02-08T10:36:46.625Z,2.29
2023-02-08T10:39:19.008Z,2.36
2023-02-08T10:41:51.929Z,2.39
2023-02-08T10:44:28.181Z,2.42
2023-02-08T10:47:03.998Z,2.44
2023-02-08T10:49:37.940Z,2.47
2023-02-08T10:52:08.201Z,1.99
2023-02-08T10:54:38.349Z,2.47
2023-02-08T10:57:15.703Z,2.51
2023-02-08T10:59:50.291Z,2.57
2023-02-08T11:02:23.966Z,2.61
2023-02-08T11:05:00.837Z,2.60
2023-02-08T11:07:31.274Z,2.63
2023-02-08T11:10:16.612Z,2.67
2023-02-08T11:12:56.394Z,2.69
2023-02-08T11:15:28.622Z,2.75
2023-02-08T11:18:01.199Z,2.79
2023-02-08T11:20:34.838Z,2.78
2023-02-08T11:23:05.724Z,2.80
2023-02-08T11:25:38.302Z,2.84
2023-02-08T11:28:24.572Z,2.87
2023-02-08T11:30:58.769Z,2.89
2023-02-08T11:33:29.262Z,2.94
2023-02-08T11:36:04.605Z,2.95
2023-02-08T11:38:36.836Z,2.98
2023-02-08T11:41:08.792Z,3.03
2023-02-08T11:43:41.516Z,3.05
2023-02-08T11:46:13.394Z,3.06
2023-02-08T11:48:47.842Z,3.09
2023-02-08T11:51:26.822Z,3.11
2023-02-08T11:53:57.190Z,3.12
2023-02-08T11:56:28.186Z,3.07
2023-02-08T11:59:02.486Z,3.06
2023-02-08T12:01:33.997Z,3.09
2023-02-08T12:04:05.101Z,3.16
2023-02-08T12:06:54.964Z,3.24
2023-02-08T12:09:43.255Z,3.28
2023-02-08T12:12:20.486Z,3.30
2023-02-08T12:14:58.009Z,3.33
2023-02-08T12:17:42.752Z,3.39
2023-02-08T12:20:34.277Z,3.45
2023-02-08T12:23:10.629Z,3.46
2023-02-08T12:25:44.380Z,3.45
2023-02-08T12:28:19.556Z,3.48
2023-02-08T12:30:56.401Z,3.51
2023-02-08T12:33:37.874Z,3.55
2023-02-08T12:36:27.646Z,3.54
2023-02-08T12:39:27.706Z,3.53
2023-02-08T12:42:09.463Z,3.54
2023-02-08T12:44:50.073Z,3.57
2023-02-08T12:47:35.261Z,3.59
2023-02-08T12:50:11.262Z,3.61
2023-02-08T12:52:45.021Z,3.61
2023-02-08T12:55:18.805Z,3.63
2023-02-08T12:57:53.102Z,3.65
2023-02-08T13:00:25.732Z,3.68
2023-02-08T13:03:01.462Z,3.72
2023-02-08T13:05:34.599Z,3.75
2023-02-08T13:08:09.441Z,3.80
2023-02-08T13:10:42.772Z,3.80
2023-02-08T13:13:16.231Z,3.82
2023-02-08T13:15:48.292Z,3.83
2023-02-08T13:18:23.340Z,3.82
2023-02-08T13:20:54.608Z,3.82
2023-02-08T13:23:27.439Z,3.83
2023-02-08T13:25:58.703Z,3.88
2023-02-08T13:28:30.053Z,3.92
2023-02-08T13:31:03.539Z,3.92
2023-02-08T13:33:41.081Z,3.92
2023-02-08T13:36:22.757Z,3.95
2023-02-08T13:38:53.480Z,4.00
2023-02-08T13:41:24.962Z,4.03
2023-02-08T13:43:57.427Z,4.05
2023-02-08T13:46:28.839Z,4.06
2023-02-08T13:49:02.592Z,4.07
2023-02-08T13:51:59.465Z,4.08
2023-02-08T13:54:30.169Z,4.08
2023-02-08T13:57:00.329Z,4.10
2023-02-08T13:59:36.114Z,4.16
2023-02-08T14:02:27.407Z,4.18
2023-02-08T14:05:20.619Z,4.18
2023-02-08T14:07:51.478Z,4.15
2023-02-08T14:10:26.675Z,4.14
2023-02-08T14:12:59.754Z,4.12
2023-02-08T14:15:32.113Z,4.12
2023-02-08T14:18:03.512Z,4.13
2023-02-08T14:20:41.600Z,4.13
2023-02-08T14:23:24.111Z,4.11
2023-02-08T14:25:56.229Z,4.10
2023-02-08T14:28:28.217Z,4.10
2023-02-08T14:31:00.611Z,4.07
2023-02-08T14:33:32.691Z,4.09
2023-02-08T14:36:11.331Z,4.11
2023-02-08T14:38:56.323Z,4.12
2023-02-08T14:41:41.700Z,4.11
2023-02-08T14:44:27.013Z,4.10
2023-02-08T14:46:57.335Z,4.07
2023-02-08T14:49:29.493Z,4.07
2023-02-08T14:52:05.628Z,4.10
2023-02-08T14:54:39.714Z,4.09
2023-02-08T14:57:16.527Z,4.09
2023-02-08T14:59:47.034Z,4.05
2023-02-08T15:02:22.264Z,4.01
2023-02-08T15:04:52.756Z,3.99
2023-02-08T15:07:33.386Z,3.98
2023-02-08T15:10:05.495Z,3.95
2023-02-08T15:12:37.228Z,3.91
2023-02-08T15:15:08.446Z,3.86
2023-02-08T15:17:42.623Z,3.80
2023-02-08T15:20:20.109Z,3.77
2023-02-08T15:23:00.778Z,3.82
2023-02-08T15:25:32.852Z,3.97
2023-02-08T15:28:04.377Z,4.00
2023-02-08T15:30:36.335Z,3.85
2023-02-08T15:33:11.579Z,3.70
2023-02-08T15:35:41.665Z,3.59
2023-02-08T15:38:18.298Z,3.50
2023-02-08T15:41:04.774Z,3.42
2023-02-08T15:43:35.759Z,3.34
2023-02-08T15:46:07.391Z,3.30
2023-02-08T15:48:38.741Z,3.26
2023-02-08T15:51:11.516Z,3.22
2023-02-08T15:53:45.881Z,3.17
2023-02-08T15:56:26.993Z,3.14
2023-02-08T15:59:06.481Z,3.08
2023-02-08T16:01:36.571Z,3.05
2023-02-08T16:04:12.476Z,2.99
2023-02-08T16:06:47.743Z,2.96
2023-02-08T16:09:25.248Z,2.92
2023-02-08T16:11:56.847Z,2.88
2023-02-08T16:14:30.216Z,2.81
2023-02-08T16:17:01.508Z,2.52
2023-02-08T16:19:32.331Z,2.73
2023-02-08T16:22:17.160Z,2.65
2023-02-08T16:24:51.028Z,2.61
2023-02-08T16:27:23.575Z,2.56
2023-02-08T16:29:54.013Z,2.53
2023-02-08T16:32:27.390Z,2.47
2023-02-08T16:34:57.977Z,2.43
2023-02-08T16:37:29.621Z,2.40
2023-02-08T16:40:03.498Z,2.37
2023-02-08T16:42:35.951Z,2.33
2023-02-08T16:45:17.173Z,2.29
2023-02-08T16:47:48.465Z,2.25
2023-02-08T16:50:20.855Z,2.20
2023-02-08T16:52:56.207Z,2.15
2023-02-08T16:55:29.740Z,2.11
2023-02-08T16:58:00.718Z,2.07
2023-02-08T17:00:32.341Z,2.00
2023-02-08T17:03:02.809Z,1.95
2023-02-08T17:05:34.134Z,1.89
2023-02-08T17:08:07.154Z,1.86
2023-02-08T17:10:40.042Z,1.79
2023-02-08T17:13:25.050Z,1.74
2023-02-08T17:15:56.020Z,1.67
2023-02-08T17:18:26.111Z,1.60
2023-02-08T17:20:59.943Z,1.54
2023-02-08T17:23:30.212Z,1.50
2023-02-08T17:26:03.103Z,1.43
2023-02-08T17:28:35.776Z,1.39
2023-02-08T17:31:06.036Z,1.34
2023-02-08T17:33:40.200Z,1.30
2023-02-08T17:36:11.106Z,1.31
2023-02-08T17:38:42.537Z,1.38
2023-02-08T17:41:17.323Z,1.39
2023-02-08T17:43:48.151Z,1.39
2023-02-08T17:46:19.854Z,1.25
2023-02-08T17:48:50.379Z,1.12
2023-02-08T17:51:22.241Z,1.04
2023-02-08T17:53:52.986Z,0.96
2023-02-08T17:56:27.380Z,0.92
2023-02-08T17:59:01.008Z,0.89
2023-02-08T18:01:31.621Z,0.84
2023-02-08T18:04:02.625Z,0.79
2023-02-08T18:06:33.498Z,0.75
2023-02-08T18:09:03.723Z,0.71
2023-02-08T18:11:36.764Z,0.67
2023-02-08T18:14:06.923Z,0.64
2023-02-08T18:16:38.261Z,0.59
2023-02-08T18:19:08.638Z,0.57
2023-02-08T18:21:39.157Z,0.53
2023-02-08T18:24:09.663Z,0.48
2023-02-08T18:26:43.316Z,0.45
2023-02-08T18:29:13.635Z,0.43
2023-02-08T18:31:44.031Z,0.39
2023-02-08T18:34:16.446Z,0.36
2023-02-08T18:36:46.973Z,0.34
2023-02-08T18:39:23.337Z,0.32
2023-02-08T18:41:56.280Z,0.27
2023-02-08T18:44:26.425Z,0.22
2023-02-08T18:46:56.827Z,0.19
2023-02-08T18:49:27.262Z,0.14
2023-02-08T18:51:57.564Z,0.07
2023-02-08T18:54:27.965Z,0.05
2023-02-08T18:57:01.106Z,0.07
2023-02-08T18:59:31.610Z,0.05
2023-02-08T19:02:02.511Z,0.04
2023-02-08T19:04:32.762Z,0.03
2023-02-08T19:07:03.038Z,0.03
2023-02-08T19:09:33.112Z,0.04
2023-02-08T19:12:05.993Z,0.03
2023-02-08T19:14:36.146Z,-0.01
2023-02-08T19:17:06.573Z,-0.02
2023-02-08T19:19:36.792Z,-0.04
2023-02-08T19:22:06.920Z,-0.07
2023-02-08T19:24:37.201Z,-0.11
2023-02-08T19:27:10.155Z,-0.15
2023-02-08T19:29:40.433Z,-0.17
2023-02-08T19:32:10.775Z,-0.17
2023-02-08T19:34:42.918Z,-0.19
2023-02-08T19:37:13.057Z,-0.20
2023-02-08T19:39:43.183Z,-0.24
2023-02-08T19:42:16.075Z,-0.25
2023-02-08T19:44:46.502Z,-0.29
2023-02-08T19:47:16.823Z,-0.35
2023-02-08T19:49:47.433Z,-0.32
2023-02-08T19:52:20.839Z,-0.33
2023-02-08T19:54:52.985Z,-0.36
2023-02-08T19:57:25.909Z,-0.35
2023-02-08T19:59:56.385Z,-0.33
2023-02-08T20:02:28.626Z,-0.33
2023-02-08T20:04:58.965Z,-0.37
2023-02-08T20:07:29.126Z,-0.40
2023-02-08T20:09:59.574Z,-0.40
2023-02-08T20:12:32.641Z,-0.40
2023-02-08T20:15:02.986Z,-0.44
2023-02-08T20:17:33.118Z,-0.43
2023-02-08T20:20:06.334Z,-0.43
2023-02-08T20:22:36.776Z,-0.45
2023-02-08T20:25:07.338Z,-0.42
2023-02-08T20:27:40.484Z,-0.44
2023-02-08T20:30:11.969Z,-0.45
2023-02-08T20:32:43.950Z,-0.45
2023-02-08T20:35:14.380Z,-0.46
2023-02-08T20:37:44.523Z,-0.51
2023-02-08T20:40:17.142Z,-0.54
2023-02-08T20:42:49.857Z,-0.55
2023-02-08T20:45:20.173Z,-0.63
2023-02-08T20:47:50.358Z,-0.70
2023-02-08T20:50:20.720Z,-0.77
2023-02-08T20:52:52.414Z,-0.76
2023-02-08T20:55:22.944Z,-0.73
2023-02-08T20:57:55.775Z,-0.76
2023-02-08T21:00:33.378Z,-0.76
2023-02-08T21:03:06.922Z,-0.76
2023-02-08T21:05:37.220Z,-0.75
2023-02-08T21:08:07.433Z,-0.76
2023-02-08T21:10:38.690Z,-0.74
2023-02-08T21:13:11.473Z,-0.80
2023-02-08T21:15:44.155Z,-0.80
2023-02-08T21:18:14.273Z,-0.78
2023-02-08T21:20:44.638Z,-0.88
2023-02-08T21:23:14.946Z,-0.91
2023-02-08T21:25:45.951Z,-0.96
2023-02-08T21:28:19.226Z,-1.00
2023-02-08T21:30:57.329Z,-0.98
2023-02-08T21:33:28.360Z,-1.00
2023-02-08T21:35:58.692Z,-1.03
2023-02-08T21:38:28.877Z,-1.05
2023-02-08T21:40:59.054Z,-1.07
2023-02-08T21:43:32.073Z,-1.03
2023-02-08T21:46:04.767Z,-0.93
2023-02-08T21:48:52.951Z,-0.87
2023-02-08T21:51:36.389Z,-0.81
2023-02-08T21:54:19.448Z,-0.82
2023-02-08T21:56:49.719Z,-0.82
2023-02-08T21:59:22.854Z,-0.83
2023-02-08T22:01:53.390Z,-0.83
2023-02-08T22:04:23.717Z,-0.84
2023-02-08T22:06:56.168Z,-0.84
2023-02-08T22:09:26.837Z,-0.86
2023-02-08T22:11:57.302Z,-0.85
2023-02-08T22:14:30.404Z,-0.87
2023-02-08T22:17:00.614Z,-0.88
2023-02-08T22:19:30.714Z,-0.86
2023-02-08T22:22:02.364Z,-0.83
2023-02-08T22:24:32.665Z,-0.81
2023-02-08T22:27:03.022Z,-0.79
2023-02-08T22:29:36.133Z,-0.83
2023-02-08T22:32:07.549Z,-0.77
2023-02-08T22:34:39.352Z,-0.70
2023-02-08T22:37:09.688Z,-0.68
2023-02-08T22:39:40.007Z,-0.68
2023-02-08T22:42:14.221Z,-0.61
2023-02-08T22:44:47.349Z,-0.56
2023-02-08T22:47:17.681Z,-0.54
2023-02-08T22:49:47.849Z,-0.53
2023-02-08T22:52:18.355Z,-0.51
2023-02-08T22:54:48.589Z,-0.49
2023-02-08T22:57:18.696Z,-0.46
2023-02-08T22:59:51.693Z,-0.47
2023-02-08T23:02:21.972Z,-0.50
2023-02-08T23:04:52.654Z,-0.54
2023-02-08T23:07:22.889Z,-0.53
2023-02-08T23:09:53.116Z,-0.51
2023-02-08T23:12:23.590Z,-0.50
2023-02-08T23:14:56.289Z,-0.57
2023-02-08T23:17:26.453Z,-0.56
2023-02-08T23:19:56.914Z,-0.53
2023-02-08T23:22:27.272Z,-0.44
2023-02-08T23:24:57.608Z,-0.43
2023-02-08T23:27:27.806Z,-0.39
2023-02-08T23:30:00.559Z,-0.37
2023-02-08T23:32:30.702Z,-0.32
2023-02-08T23:35:00.884Z,-0.31
2023-02-08T23:37:32.011Z,-0.32
2023-02-08T23:40:02.095Z,-0.35
2023-02-08T23:42:32.332Z,-0.38
2023-02-08T23:45:05.029Z,-0.41
2023-02-08T23:47:35.233Z,-0.48
2023-02-08T23:50:05.749Z,-0.54
2023-02-08T23:52:36.926Z,-0.55
2023-02-08T23:55:08.498Z,-0.52
2023-02-08T23:57:39.268Z,-0.53
